Wetterdaten: Woche 12.03.18 - 18.03.18 (KW11)
Datum Zeit Temperatur Luftfeuchte Luftdruck Niederschlag Windrichtung Sonnenschein Solar Wind
12.03.2018 00:00 5,9 C 95 % 993,9 hPa 0,4 l/m N 0,00 h 0 W/m 0,0 km/h (0 Bft)
12.03.2018 01:00 6,1 C 96 % 994,0 hPa 3,2 l/m O 0,00 h 0 W/m 0,5 km/h (0 Bft)
12.03.2018 02:00 6,5 C 97 % 993,9 hPa 0,6 l/m O 0,00 h 0 W/m 6,3 km/h (2 Bft)
12.03.2018 03:00 6,3 C 97 % 993,7 hPa 0,0 l/m S-SW 0,00 h 0 W/m 6,0 km/h (2 Bft)
12.03.2018 04:00 6,4 C 97 % 993,9 hPa 0,0 l/m SW 0,00 h 0 W/m 6,8 km/h (2 Bft)
12.03.2018 05:00 6,0 C 98 % 994,0 hPa 0,0 l/m SW 0,00 h 0 W/m 6,0 km/h (2 Bft)
12.03.2018 06:00 5,4 C 98 % 994,1 hPa 0,0 l/m SW 0,00 h 8 W/m 10,9 km/h (2 Bft)
12.03.2018 07:00 5,5 C 98 % 994,7 hPa 0,0 l/m SW 0,08 h 54 W/m 11,1 km/h (2 Bft)
12.03.2018 08:00 6,4 C 98 % 995,3 hPa 0,0 l/m SW 0,25 h 129 W/m 11,6 km/h (2 Bft)
12.03.2018 09:00 6,8 C 98 % 996,0 hPa 0,2 l/m SW 0,00 h 139 W/m 13,0 km/h (3 Bft)
12.03.2018 10:00 7,6 C 95 % 996,4 hPa 0,0 l/m W-SW 0,00 h 152 W/m 20,1 km/h (4 Bft)
12.03.2018 11:00 9,0 C 89 % 997,0 hPa 0,0 l/m W-SW 0,50 h 362 W/m 24,5 km/h (4 Bft)
12.03.2018 12:00 10,3 C 81 % 997,0 hPa 0,0 l/m W-SW 0,33 h 315 W/m 28,4 km/h (4 Bft)
12.03.2018 13:00 10,7 C 77 % 996,8 hPa 0,0 l/m W-SW 0,08 h 217 W/m 24,7 km/h (4 Bft)
12.03.2018 14:00 9,8 C 83 % 997,2 hPa 0,2 l/m W 0,08 h 172 W/m 21,4 km/h (4 Bft)
12.03.2018 15:00 10,3 C 79 % 997,4 hPa 0,0 l/m W-SW 0,58 h 256 W/m 21,3 km/h (4 Bft)
12.03.2018 16:00 9,8 C 79 % 997,8 hPa 0,0 l/m W-SW 0,00 h 91 W/m 20,9 km/h (4 Bft)
12.03.2018 17:00 8,5 C 88 % 998,2 hPa 0,0 l/m SW 0,42 h 93 W/m 19,3 km/h (3 Bft)
12.03.2018 18:00 7,6 C 88 % 998,7 hPa 0,0 l/m W-SW 0,00 h 8 W/m 22,1 km/h (4 Bft)
12.03.2018 19:00 7,4 C 85 % 999,6 hPa 0,0 l/m W-SW 0,00 h 0 W/m 23,0 km/h (4 Bft)
12.03.2018 20:00 6,6 C 87 % 1000,1 hPa 0,0 l/m SW 0,00 h 0 W/m 11,1 km/h (2 Bft)
12.03.2018 21:00 5,5 C 90 % 1000,6 hPa 0,0 l/m SW 0,00 h 0 W/m 9,5 km/h (2 Bft)
12.03.2018 22:00 5,5 C 92 % 1000,9 hPa 0,0 l/m W-SW 0,00 h 0 W/m 17,3 km/h (3 Bft)
12.03.2018 23:00 6,5 C 89 % 1001,6 hPa 0,0 l/m W-SW 0,00 h 0 W/m 26,9 km/h (4 Bft)
13.03.2018 00:00 6,3 C 89 % 1002,1 hPa 0,0 l/m W-SW 0,00 h 0 W/m 18,9 km/h (3 Bft)
13.03.2018 01:00 6,3 C 89 % 1002,3 hPa 0,0 l/m W-SW 0,00 h 0 W/m 22,4 km/h (4 Bft)
13.03.2018 02:00 6,3 C 88 % 1002,6 hPa 0,0 l/m W-SW 0,00 h 0 W/m 26,3 km/h (4 Bft)
13.03.2018 03:00 5,8 C 88 % 1002,7 hPa 0,0 l/m W-SW 0,00 h 0 W/m 26,6 km/h (4 Bft)
13.03.2018 04:00 5,2 C 87 % 1003,1 hPa 0,0 l/m W-SW 0,00 h 0 W/m 25,2 km/h (4 Bft)
13.03.2018 05:00 4,8 C 87 % 1003,1 hPa 0,0 l/m W-SW 0,00 h 0 W/m 26,1 km/h (4 Bft)
13.03.2018 06:00 4,7 C 84 % 1003,6 hPa 0,0 l/m W-SW 0,17 h 20 W/m 24,1 km/h (4 Bft)
13.03.2018 07:00 5,3 C 80 % 1003,9 hPa 0,0 l/m W-SW 0,67 h 83 W/m 27,3 km/h (4 Bft)
13.03.2018 08:00 5,6 C 80 % 1004,6 hPa 0,0 l/m SW 0,08 h 132 W/m 37,1 km/h (5 Bft)
13.03.2018 09:00 5,8 C 80 % 1005,3 hPa 0,0 l/m W-SW 0,00 h 149 W/m 37,8 km/h (5 Bft)
13.03.2018 10:00 6,6 C 80 % 1005,5 hPa 0,0 l/m W-SW 0,08 h 251 W/m 35,1 km/h (5 Bft)
13.03.2018 11:00 7,2 C 76 % 1005,5 hPa 0,0 l/m W 0,25 h 268 W/m 36,3 km/h (5 Bft)
13.03.2018 12:00 7,6 C 75 % 1005,7 hPa 0,0 l/m SW 0,50 h 394 W/m 39,4 km/h (6 Bft)
13.03.2018 13:00 7,8 C 76 % 1005,8 hPa 0,0 l/m W-SW 0,17 h 260 W/m 30,4 km/h (5 Bft)
13.03.2018 14:00 7,2 C 79 % 1006,1 hPa 0,0 l/m W-SW 0,00 h 155 W/m 30,6 km/h (5 Bft)
13.03.2018 15:00 7,1 C 80 % 1006,4 hPa 0,0 l/m W 0,00 h 142 W/m 31,8 km/h (5 Bft)
13.03.2018 16:00 6,5 C 83 % 1006,7 hPa 0,0 l/m SW 0,00 h 81 W/m 31,4 km/h (5 Bft)
13.03.2018 17:00 6,3 C 85 % 1007,1 hPa 0,0 l/m W-SW 0,00 h 40 W/m 23,6 km/h (4 Bft)
13.03.2018 18:00 5,8 C 85 % 1007,9 hPa 0,0 l/m W-SW 0,00 h 9 W/m 23,5 km/h (4 Bft)
13.03.2018 19:00 5,5 C 87 % 1008,8 hPa 0,0 l/m W-SW 0,00 h 0 W/m 23,3 km/h (4 Bft)
13.03.2018 20:00 5,3 C 88 % 1009,2 hPa 0,0 l/m W-SW 0,00 h 0 W/m 22,8 km/h (4 Bft)
13.03.2018 21:00 5,3 C 88 % 1009,7 hPa 0,0 l/m W-SW 0,00 h 0 W/m 19,2 km/h (3 Bft)
13.03.2018 22:00 5,3 C 89 % 1010,3 hPa 0,0 l/m W 0,00 h 0 W/m 18,8 km/h (3 Bft)
13.03.2018 23:00 5,2 C 89 % 1010,7 hPa 0,0 l/m W-SW 0,00 h 0 W/m 16,4 km/h (3 Bft)
14.03.2018 00:00 5,1 C 90 % 1011,1 hPa 0,0 l/m W 0,00 h 0 W/m 10,6 km/h (2 Bft)
14.03.2018 01:00 5,1 C 90 % 1011,3 hPa 0,0 l/m W-SW 0,00 h 0 W/m 10,3 km/h (2 Bft)
14.03.2018 02:00 4,8 C 90 % 1011,3 hPa 0,0 l/m W-SW 0,00 h 0 W/m 8,3 km/h (2 Bft)
14.03.2018 03:00 4,8 C 90 % 1011,3 hPa 0,0 l/m W 0,00 h 0 W/m 7,4 km/h (2 Bft)
14.03.2018 04:00 4,6 C 91 % 1011,4 hPa 0,0 l/m W-SW 0,00 h 0 W/m 7,2 km/h (2 Bft)
14.03.2018 05:00 4,4 C 92 % 1011,8 hPa 0,0 l/m SW 0,00 h 0 W/m 7,8 km/h (2 Bft)
14.03.2018 06:00 4,2 C 92 % 1012,2 hPa 0,0 l/m N 0,00 h 6 W/m 1,2 km/h (1 Bft)
14.03.2018 07:00 4,0 C 93 % 1012,3 hPa 0,0 l/m W-SW 0,00 h 29 W/m 6,3 km/h (2 Bft)
14.03.2018 08:00 4,7 C 91 % 1012,4 hPa 0,0 l/m W-SW 0,33 h 182 W/m 7,5 km/h (2 Bft)
14.03.2018 09:00 6,4 C 78 % 1012,3 hPa 0,0 l/m W-NW 0,92 h 420 W/m 10,9 km/h (2 Bft)
14.03.2018 10:00 7,2 C 69 % 1012,2 hPa 0,0 l/m W-NW 0,33 h 387 W/m 11,1 km/h (2 Bft)
14.03.2018 11:00 7,8 C 68 % 1011,8 hPa 0,0 l/m W-SW 0,25 h 306 W/m 6,6 km/h (2 Bft)
14.03.2018 12:00 8,8 C 65 % 1010,9 hPa 0,0 l/m W-SW 0,58 h 542 W/m 5,5 km/h (1 Bft)
14.03.2018 13:00 9,8 C 60 % 1010,0 hPa 0,0 l/m W-SW 0,42 h 406 W/m 6,4 km/h (2 Bft)
14.03.2018 14:00 11,5 C 53 % 1008,9 hPa 0,0 l/m SO 0,67 h 492 W/m 7,9 km/h (2 Bft)
14.03.2018 15:00 10,3 C 56 % 1007,9 hPa 0,0 l/m NO 0,50 h 269 W/m 7,2 km/h (2 Bft)
14.03.2018 16:00 11,1 C 53 % 1006,9 hPa 0,0 l/m O-NO 1,00 h 250 W/m 10,5 km/h (2 Bft)
14.03.2018 17:00 10,4 C 57 % 1006,3 hPa 0,0 l/m O-NO 0,25 h 67 W/m 9,8 km/h (2 Bft)
14.03.2018 18:00 9,0 C 64 % 1006,2 hPa 0,0 l/m O-NO 0,08 h 11 W/m 5,5 km/h (1 Bft)
14.03.2018 19:00 7,3 C 70 % 1006,1 hPa 0,0 l/m O-NO 0,00 h 0 W/m 2,9 km/h (1 Bft)
14.03.2018 20:00 5,9 C 76 % 1005,8 hPa 0,0 l/m N 0,00 h 0 W/m 1,6 km/h (1 Bft)
14.03.2018 21:00 4,6 C 80 % 1005,2 hPa 0,0 l/m N 0,00 h 0 W/m 0,7 km/h (0 Bft)
14.03.2018 22:00 3,4 C 84 % 1004,7 hPa 0,0 l/m N 0,00 h 0 W/m 1,9 km/h (1 Bft)
14.03.2018 23:00 3,0 C 87 % 1003,8 hPa 0,0 l/m N 0,00 h 0 W/m 1,9 km/h (1 Bft)
15.03.2018 00:00 2,2 C 89 % 1002,8 hPa 0,0 l/m O-NO 0,00 h 0 W/m 2,0 km/h (1 Bft)
15.03.2018 01:00 1,3 C 90 % 1002,1 hPa 0,0 l/m O-NO 0,00 h 0 W/m 3,1 km/h (1 Bft)
15.03.2018 02:00 0,7 C 91 % 1001,8 hPa 0,0 l/m O-NO 0,00 h 0 W/m 5,3 km/h (1 Bft)
15.03.2018 03:00 0,8 C 93 % 1001,5 hPa 0,0 l/m O-NO 0,00 h 0 W/m 7,6 km/h (2 Bft)
15.03.2018 04:00 1,1 C 95 % 1001,2 hPa 0,0 l/m NO 0,00 h 0 W/m 8,7 km/h (2 Bft)
15.03.2018 05:00 1,1 C 96 % 1000,6 hPa 0,0 l/m NO 0,00 h 0 W/m 9,5 km/h (2 Bft)
15.03.2018 06:00 1,1 C 96 % 999,6 hPa 0,0 l/m O-NO 0,08 h 9 W/m 11,2 km/h (2 Bft)
15.03.2018 07:00 0,8 C 97 % 999,1 hPa 0,0 l/m NO 0,00 h 34 W/m 10,9 km/h (2 Bft)
15.03.2018 08:00 1,2 C 97 % 998,8 hPa 0,0 l/m NO 0,00 h 102 W/m 9,0 km/h (2 Bft)
15.03.2018 09:00 2,4 C 95 % 998,3 hPa 0,0 l/m O-NO 0,17 h 228 W/m 11,7 km/h (2 Bft)
15.03.2018 10:00 4,3 C 88 % 997,6 hPa 0,0 l/m O-NO 0,92 h 427 W/m 13,3 km/h (3 Bft)
15.03.2018 11:00 6,1 C 79 % 997,0 hPa 0,0 l/m O-NO 0,42 h 334 W/m 13,8 km/h (3 Bft)
15.03.2018 12:00 7,9 C 73 % 996,0 hPa 0,0 l/m O 0,33 h 349 W/m 14,4 km/h (3 Bft)
15.03.2018 13:00 8,4 C 72 % 995,0 hPa 0,0 l/m O-NO 0,00 h 174 W/m 15,2 km/h (3 Bft)
15.03.2018 14:00 8,1 C 75 % 994,2 hPa 0,0 l/m O-NO 0,00 h 90 W/m 14,0 km/h (3 Bft)
15.03.2018 15:00 7,9 C 79 % 994,0 hPa 0,0 l/m O-NO 0,00 h 87 W/m 11,9 km/h (2 Bft)
15.03.2018 16:00 8,6 C 78 % 993,9 hPa 0,0 l/m NO 0,17 h 148 W/m 5,6 km/h (1 Bft)
15.03.2018 17:00 8,8 C 77 % 993,4 hPa 0,0 l/m N 0,00 h 55 W/m 3,1 km/h (1 Bft)
15.03.2018 18:00 8,3 C 79 % 994,0 hPa 0,0 l/m N-NW 0,00 h 8 W/m 2,1 km/h (1 Bft)
15.03.2018 19:00 7,7 C 81 % 995,2 hPa 0,0 l/m NW 0,00 h 0 W/m 4,8 km/h (1 Bft)
15.03.2018 20:00 7,5 C 82 % 996,5 hPa 0,0 l/m W-SW 0,00 h 0 W/m 13,2 km/h (3 Bft)
15.03.2018 21:00 7,3 C 81 % 997,5 hPa 0,0 l/m W-SW 0,00 h 0 W/m 12,1 km/h (2 Bft)
15.03.2018 22:00 7,0 C 83 % 998,2 hPa 0,0 l/m W-SW 0,00 h 0 W/m 15,6 km/h (3 Bft)
15.03.2018 23:00 6,6 C 85 % 998,5 hPa 0,0 l/m SW 0,00 h 0 W/m 3,1 km/h (1 Bft)
16.03.2018 00:00 6,1 C 87 % 998,8 hPa 0,0 l/m SW 0,00 h 0 W/m 6,8 km/h (2 Bft)
16.03.2018 01:00 5,5 C 88 % 999,3 hPa 0,0 l/m SW 0,00 h 0 W/m 2,9 km/h (1 Bft)
16.03.2018 02:00 4,6 C 91 % 999,4 hPa 0,0 l/m SW 0,00 h 0 W/m 9,0 km/h (2 Bft)
16.03.2018 03:00 3,7 C 91 % 999,4 hPa 0,0 l/m N 0,00 h 0 W/m 0,4 km/h (0 Bft)
16.03.2018 04:00 2,6 C 92 % 999,6 hPa 0,0 l/m N 0,00 h 0 W/m 0,0 km/h (0 Bft)
16.03.2018 05:00 1,9 C 93 % 999,9 hPa 0,0 l/m N 0,00 h 0 W/m 0,0 km/h (0 Bft)
16.03.2018 06:00 0,9 C 93 % 1000,2 hPa 0,0 l/m N 0,00 h 12 W/m 0,0 km/h (0 Bft)
16.03.2018 07:00 1,0 C 95 % 1000,5 hPa 0,0 l/m SW 0,42 h 58 W/m 0,0 km/h (0 Bft)
16.03.2018 08:00 2,9 C 96 % 1001,0 hPa 0,0 l/m SW 0,00 h 89 W/m 5,6 km/h (1 Bft)
16.03.2018 09:00 5,6 C 92 % 1001,5 hPa 0,0 l/m SW 0,00 h 145 W/m 15,3 km/h (3 Bft)
16.03.2018 10:00 6,7 C 89 % 1001,8 hPa 0,0 l/m SW 0,50 h 306 W/m 16,6 km/h (3 Bft)
16.03.2018 11:00 8,3 C 81 % 1001,8 hPa 0,0 l/m W-SW 0,42 h 375 W/m 20,0 km/h (4 Bft)
16.03.2018 12:00 9,8 C 72 % 1001,6 hPa 0,0 l/m SW 0,50 h 356 W/m 16,0 km/h (3 Bft)
16.03.2018 13:00 10,8 C 66 % 1001,1 hPa 0,0 l/m SW 0,42 h 407 W/m 23,0 km/h (4 Bft)
16.03.2018 14:00 11,4 C 64 % 1000,8 hPa 0,0 l/m W-SW 0,50 h 374 W/m 24,9 km/h (4 Bft)
16.03.2018 15:00 9,3 C 74 % 1001,0 hPa 0,0 l/m W-NW 0,17 h 198 W/m 11,9 km/h (2 Bft)
16.03.2018 16:00 9,4 C 72 % 1000,6 hPa 0,0 l/m W-NW 0,33 h 178 W/m 12,1 km/h (2 Bft)
16.03.2018 17:00 9,5 C 71 % 1000,3 hPa 0,0 l/m W-SW 0,33 h 61 W/m 6,7 km/h (2 Bft)
16.03.2018 18:00 8,8 C 75 % 1000,9 hPa 0,0 l/m N 0,08 h 13 W/m 0,0 km/h (0 Bft)
16.03.2018 19:00 7,7 C 77 % 1001,2 hPa 0,0 l/m N 0,00 h 0 W/m 0,0 km/h (0 Bft)
16.03.2018 20:00 5,6 C 81 % 1001,1 hPa 0,0 l/m N 0,00 h 0 W/m 0,0 km/h (0 Bft)
16.03.2018 21:00 4,1 C 85 % 1000,8 hPa 0,0 l/m N 0,00 h 0 W/m 0,0 km/h (0 Bft)
16.03.2018 22:00 3,1 C 87 % 1001,0 hPa 0,0 l/m N 0,00 h 0 W/m 0,0 km/h (0 Bft)
16.03.2018 23:00 2,3 C 89 % 1000,4 hPa 0,0 l/m N 0,00 h 0 W/m 0,0 km/h (0 Bft)
17.03.2018 00:00 1,6 C 90 % 1000,2 hPa 0,0 l/m N 0,00 h 0 W/m 0,0 km/h (0 Bft)
17.03.2018 01:00 1,3 C 91 % 999,4 hPa 0,0 l/m N 0,00 h 0 W/m 0,5 km/h (0 Bft)
17.03.2018 02:00 1,0 C 93 % 998,8 hPa 0,0 l/m N 0,00 h 0 W/m 0,0 km/h (0 Bft)
17.03.2018 03:00 0,8 C 94 % 998,1 hPa 0,0 l/m N 0,00 h 0 W/m 0,0 km/h (0 Bft)
17.03.2018 04:00 1,2 C 95 % 997,6 hPa 0,0 l/m N 0,00 h 0 W/m 0,1 km/h (0 Bft)
17.03.2018 05:00 1,2 C 95 % 997,2 hPa 0,0 l/m W-SW 0,00 h 0 W/m 2,1 km/h (1 Bft)
17.03.2018 06:00 1,2 C 96 % 996,7 hPa 0,0 l/m W-SW 0,00 h 9 W/m 5,2 km/h (1 Bft)
17.03.2018 07:00 1,8 C 97 % 996,4 hPa 0,0 l/m NO 0,00 h 29 W/m 10,9 km/h (2 Bft)
17.03.2018 08:00 2,5 C 97 % 996,0 hPa 0,0 l/m NO 0,00 h 55 W/m 12,2 km/h (2 Bft)
17.03.2018 09:00 3,1 C 98 % 995,4 hPa 0,0 l/m NO 0,00 h 128 W/m 18,1 km/h (3 Bft)
17.03.2018 10:00 3,4 C 97 % 995,0 hPa 0,0 l/m O-NO 0,00 h 126 W/m 19,2 km/h (3 Bft)
17.03.2018 11:00 3,6 C 97 % 994,5 hPa 0,0 l/m O-NO 0,00 h 132 W/m 17,8 km/h (3 Bft)
17.03.2018 12:00 3,7 C 95 % 994,0 hPa 0,0 l/m NO 0,00 h 120 W/m 19,0 km/h (3 Bft)
17.03.2018 13:00 3,4 C 95 % 993,4 hPa 0,0 l/m NO 0,00 h 75 W/m 18,0 km/h (3 Bft)
17.03.2018 14:00 2,8 C 96 % 993,2 hPa 0,0 l/m NO 0,00 h 57 W/m 23,3 km/h (4 Bft)
17.03.2018 15:00 2,4 C 96 % 993,2 hPa 0,0 l/m NO 0,00 h 35 W/m 22,2 km/h (4 Bft)
17.03.2018 16:00 1,9 C 97 % 993,3 hPa 0,2 l/m NO 0,00 h 26 W/m 23,1 km/h (4 Bft)
17.03.2018 17:00 1,3 C 97 % 993,7 hPa 0,0 l/m O-NO 0,00 h 10 W/m 24,1 km/h (4 Bft)
17.03.2018 18:00 0,8 C 96 % 994,0 hPa 0,0 l/m NO 0,00 h 0 W/m 23,6 km/h (4 Bft)
17.03.2018 19:00 0,1 C 96 % 994,6 hPa 0,0 l/m NO 0,00 h 0 W/m 23,8 km/h (4 Bft)
17.03.2018 20:00 -0,4 C 97 % 995,0 hPa 0,0 l/m O-NO 0,00 h 0 W/m 22,3 km/h (4 Bft)
17.03.2018 21:00 -0,9 C 97 % 995,3 hPa 0,0 l/m NO 0,00 h 0 W/m 22,0 km/h (4 Bft)
17.03.2018 22:00 -1,5 C 97 % 995,8 hPa 0,0 l/m NO 0,00 h 0 W/m 21,0 km/h (4 Bft)
17.03.2018 23:00 -2,0 C 97 % 996,3 hPa 0,0 l/m NO 0,00 h 0 W/m 16,4 km/h (3 Bft)
18.03.2018 00:00 -2,3 C 98 % 996,4 hPa 0,6 l/m NO 0,00 h 0 W/m 12,3 km/h (3 Bft)
18.03.2018 01:00 -2,6 C 98 % 996,8 hPa 1,2 l/m N-NO 0,00 h 0 W/m 13,3 km/h (3 Bft)
18.03.2018 02:00 -2,8 C 97 % 996,7 hPa 0,6 l/m NO 0,00 h 0 W/m 12,2 km/h (2 Bft)
18.03.2018 03:00 -3,1 C 97 % 996,6 hPa 0,0 l/m NO 0,00 h 0 W/m 14,6 km/h (3 Bft)
18.03.2018 04:00 -3,2 C 97 % 996,9 hPa 0,2 l/m O-NO 0,00 h 0 W/m 12,8 km/h (3 Bft)
18.03.2018 05:00 -3,4 C 97 % 997,2 hPa 0,0 l/m O-NO 0,00 h 0 W/m 12,1 km/h (2 Bft)
18.03.2018 06:00 -3,6 C 97 % 997,5 hPa 0,0 l/m NO 0,00 h 7 W/m 11,3 km/h (2 Bft)
18.03.2018 07:00 -3,6 C 97 % 998,1 hPa 0,0 l/m NO 0,00 h 21 W/m 12,1 km/h (2 Bft)
18.03.2018 08:00 -3,5 C 97 % 998,9 hPa 0,0 l/m NO 0,00 h 50 W/m 13,3 km/h (3 Bft)
18.03.2018 09:00 -3,2 C 97 % 999,6 hPa 0,0 l/m NO 0,00 h 96 W/m 12,1 km/h (2 Bft)
18.03.2018 10:00 -2,7 C 97 % 999,9 hPa 0,0 l/m NO 0,00 h 160 W/m 14,2 km/h (3 Bft)
18.03.2018 11:00 -2,0 C 97 % 1000,1 hPa 0,0 l/m O-NO 0,00 h 251 W/m 15,3 km/h (3 Bft)
18.03.2018 12:00 -1,5 C 96 % 1000,4 hPa 0,0 l/m O-NO 0,00 h 223 W/m 14,1 km/h (3 Bft)
18.03.2018 13:00 -1,4 C 95 % 1000,5 hPa 0,0 l/m O-NO 0,00 h 176 W/m 16,1 km/h (3 Bft)
18.03.2018 14:00 -1,6 C 94 % 1001,0 hPa 0,0 l/m O-NO 0,00 h 127 W/m 17,2 km/h (3 Bft)
18.03.2018 15:00 -1,8 C 94 % 1001,5 hPa 0,0 l/m O-NO 0,00 h 93 W/m 17,7 km/h (3 Bft)
18.03.2018 16:00 -2,0 C 93 % 1001,8 hPa 0,0 l/m NO 0,00 h 70 W/m 19,2 km/h (3 Bft)
18.03.2018 17:00 -2,3 C 92 % 1002,7 hPa 0,0 l/m O-NO 0,00 h 21 W/m 16,2 km/h (3 Bft)
18.03.2018 18:00 -2,6 C 91 % 1003,6 hPa 0,0 l/m O 0,00 h 7 W/m 16,5 km/h (3 Bft)
18.03.2018 19:00 -2,8 C 91 % 1004,3 hPa 0,0 l/m O-NO 0,00 h 0 W/m 16,2 km/h (3 Bft)
18.03.2018 20:00 -2,9 C 92 % 1004,7 hPa 0,0 l/m O-NO 0,00 h 0 W/m 16,4 km/h (3 Bft)
18.03.2018 21:00 -3,0 C 92 % 1005,0 hPa 0,0 l/m O-NO 0,00 h 0 W/m 15,2 km/h (3 Bft)
18.03.2018 22:00 -3,2 C 93 % 1005,2 hPa 0,0 l/m O-NO 0,00 h 0 W/m 14,5 km/h (3 Bft)
18.03.2018 23:00 -3,3 C 93 % 1005,5 hPa 0,0 l/m O-NO 0,00 h 0 W/m 14,2 km/h (3 Bft)
Min-Datum _ 18.03.18 14.03.18 17.03.18 - - - - 12.03.18
_ Min-Zeit 06:50 14:35 13:45 - - - - 00:00
Minimum _ -3,7 C 51 % 993,1 hPa - - - - 0,0 km/h (0 Bft)
Max-Datum _ 14.03.18 12.03.18 14.03.18 12.03.18 - 12.03.18 16.03.18 13.03.18
_ Max-Zeit 14:35 04:30 08:50 01:10 - 07:55 14:00 11:55
Maximum _ 12,2 C 98 % 1012,5 hPa 3,2 l/m - 0,08 h 847 W/m 51,5 km/h
W-SW (7 Bft)
Durchschnitt _ 4,2 C 87 % 1000,9 hPa #7,4 l/m O-NO #15:20 h 156 W/m 13,5 km/h (3 Bft)